Time;durP1;ratioP1;P1;durP2;ratioP2;P2;SDS_P1;SDS_P2;PMS_P1;PMS_P2;Temp;Humidity;BMP_temperature;BMP_pressure;BME280_temperature;BME280_humidity;BME280_pressure;Samples;Min_cycle;Max_cycle;Signal;HPM_P1;HPM_P2
2021/06/29 00:00:01;;;;;;;;;;;;;;;24.15;28.84;81712.81;2079487;28;1902;-66
2021/06/29 00:01:02;;;;;;;;;;;;;;;24.15;28.58;81648.81;2095238;28;926;-68
2021/06/29 00:02:02;;;;;;;;;;;;;;;24.15;28.75;81684.81;2095443;28;802;-68
2021/06/29 00:03:03;;;;;;;;;;;;;;;24.15;28.77;81670.81;2095603;28;971;-71
2021/06/29 00:04:08;;;;;;;;;;;;;;;24.15;28.86;81698.81;2103526;28;995;-67
2021/06/29 00:05:09;;;;;;;;;;;;;;;24.15;28.50;81732.81;2103044;28;1301;-66
2021/06/29 00:06:09;;;;;;;;;;;;;;;24.15;28.91;81716.81;2094934;28;1254;-67
2021/06/29 00:07:09;;;;;;;;;;;;;;;24.15;28.75;81710.81;2079894;28;694;-68
2021/06/29 00:08:09;;;;;;;;;;;;;;;24.15;28.56;81680.81;2095728;28;979;-67
2021/06/29 00:09:10;;;;;;;;;;;;;;;24.15;28.81;81686.81;2087263;28;854;-67
2021/06/29 00:10:10;;;;;;;;;;;;;;;24.15;28.51;81718.81;2070754;28;846;-65
2021/06/29 00:11:10;;;;;;;;;;;;;;;24.15;28.74;81710.81;2087043;28;1062;-65
2021/06/29 00:12:11;;;;;;;;;;;;;;;24.15;28.67;81712.81;2095475;28;897;-66
2021/06/29 00:13:11;;;;;;;;;;;;;;;24.15;28.46;81714.81;2087265;28;979;-68
2021/06/29 00:14:11;;;;;;;;;;;;;;;24.15;28.82;81718.81;2087013;28;908;-66
2021/06/29 00:15:12;;;;;;;;;;;;;;;24.15;28.51;81752.81;2079715;28;1195;-67
2021/06/29 00:16:12;;;;;;;;;;;;;;;24.15;28.59;81762.78;2095338;28;1273;-68
2021/06/29 00:17:12;;;;;;;;;;;;;;;24.15;28.60;81802.78;2095127;28;849;-68
2021/06/29 00:18:12;;;;;;;;;;;;;;;24.15;28.79;81788.78;2079227;28;703;-66
2021/06/29 00:19:12;;;;;;;;;;;;;;;24.15;28.90;81770.78;2079424;28;968;-66
2021/06/29 00:20:13;;;;;;;;;;;;;;;24.15;28.65;81774.78;2095371;28;1911;-66
2021/06/29 00:21:13;;;;;;;;;;;;;;;24.15;28.55;81760.78;2103631;28;841;-65
2021/06/29 00:22:13;;;;;;;;;;;;;;;24.15;28.69;81746.81;2087162;28;867;-67
2021/06/29 00:23:13;;;;;;;;;;;;;;;24.15;28.68;81768.78;2078712;28;868;-68
2021/06/29 00:24:14;;;;;;;;;;;;;;;24.15;28.93;81778.78;2079499;28;860;-68
2021/06/29 00:25:14;;;;;;;;;;;;;;;24.15;28.72;81832.78;2095251;28;1139;-68
2021/06/29 00:26:14;;;;;;;;;;;;;;;24.15;28.66;81776.78;2103750;28;851;-67
2021/06/29 00:27:15;;;;;;;;;;;;;;;24.15;28.77;81764.78;2086928;28;852;-66
2021/06/29 00:28:15;;;;;;;;;;;;;;;24.15;28.88;81788.78;2078120;28;1401;-66
2021/06/29 00:29:15;;;;;;;;;;;;;;;24.15;29.02;81816.78;2086908;28;1660;-65
2021/06/29 00:30:15;;;;;;;;;;;;;;;24.15;29.06;81808.78;2087004;28;1982;-67
2021/06/29 00:31:16;;;;;;;;;;;;;;;24.15;28.94;81788.78;2079964;28;1710;-67
2021/06/29 00:32:16;;;;;;;;;;;;;;;24.15;29.02;81808.78;2080600;28;912;-67
2021/06/29 00:33:16;;;;;;;;;;;;;;;24.15;28.88;81782.78;2071877;28;741;-68
2021/06/29 00:34:16;;;;;;;;;;;;;;;24.15;29.11;81824.78;2071939;28;1208;-66
2021/06/29 00:35:16;;;;;;;;;;;;;;;24.15;28.74;81784.78;2080079;28;2079;-68
2021/06/29 00:36:17;;;;;;;;;;;;;;;24.15;28.90;81810.78;2080652;28;856;-67
2021/06/29 00:37:17;;;;;;;;;;;;;;;24.15;28.81;81776.78;2072085;28;1094;-64
2021/06/29 00:38:17;;;;;;;;;;;;;;;24.15;28.57;81760.78;2072123;28;1041;-67
2021/06/29 00:39:17;;;;;;;;;;;;;;;24.15;28.68;81802.78;2080023;28;980;-66
2021/06/29 00:40:18;;;;;;;;;;;;;;;24.15;28.60;81776.78;2081262;28;1961;-66
2021/06/29 00:41:18;;;;;;;;;;;;;;;24.15;28.87;81820.78;2080617;28;880;-67
2021/06/29 00:42:18;;;;;;;;;;;;;;;24.15;29.05;81860.78;2072502;28;948;-69
2021/06/29 00:43:18;;;;;;;;;;;;;;;24.15;29.12;81840.78;2080541;28;901;-68
2021/06/29 00:44:21;;;;;;;;;;;;;;;24.15;28.88;81844.78;2072142;28;1480;-67
2021/06/29 00:45:21;;;;;;;;;;;;;;;24.15;28.93;81880.78;2064601;28;1526;-67
2021/06/29 00:46:22;;;;;;;;;;;;;;;24.15;29.19;81840.78;2063937;28;932;-67
2021/06/29 00:47:22;;;;;;;;;;;;;;;24.15;28.95;81852.78;2080432;28;933;-66
2021/06/29 00:48:22;;;;;;;;;;;;;;;24.15;29.05;81860.78;2072547;28;1173;-66
2021/06/29 00:49:22;;;;;;;;;;;;;;;24.15;29.30;81906.78;2072116;28;789;-66
2021/06/29 00:50:22;;;;;;;;;;;;;;;24.15;29.21;81892.78;2080976;28;685;-67
2021/06/29 00:51:23;;;;;;;;;;;;;;;24.15;28.99;81888.78;2081521;28;912;-67
2021/06/29 00:52:23;;;;;;;;;;;;;;;24.15;29.24;81902.78;2083258;28;857;-68
2021/06/29 00:53:23;;;;;;;;;;;;;;;24.15;29.39;81940.78;2082589;28;968;-65
2021/06/29 00:54:23;;;;;;;;;;;;;;;24.15;29.27;81908.78;2082494;28;912;-66
2021/06/29 00:55:23;;;;;;;;;;;;;;;24.15;29.28;81956.78;2082806;28;1248;-65
2021/06/29 00:56:24;;;;;;;;;;;;;;;24.15;29.08;81902.78;2081820;28;892;-66
2021/06/29 00:57:24;;;;;;;;;;;;;;;24.15;28.91;81884.78;2073653;28;1019;-67
2021/06/29 00:58:24;;;;;;;;;;;;;;;24.15;29.00;81904.78;2072895;28;976;-67
2021/06/29 00:59:24;;;;;;;;;;;;;;;24.15;29.16;81946.78;2073133;28;933;-67
2021/06/29 01:00:24;;;;;;;;;;;;;;;24.15;28.91;81932.78;2068694;28;1907;-68
2021/06/29 01:01:24;;;;;;;;;;;;;;;24.15;29.12;81936.78;2080889;28;814;-68
2021/06/29 01:02:25;;;;;;;;;;;;;;;24.15;29.28;81942.78;2089156;28;877;-68
2021/06/29 01:03:25;;;;;;;;;;;;;;;24.15;29.09;81900.78;2089520;28;824;-65
2021/06/29 01:04:25;;;;;;;;;;;;;;;24.15;28.98;81908.78;2089045;28;888;-66
2021/06/29 01:05:25;;;;;;;;;;;;;;;24.15;29.36;81942.78;2080921;28;1231;-67
2021/06/29 01:06:28;;;;;;;;;;;;;;;24.15;29.21;81968.78;2088563;28;845;-67
2021/06/29 01:07:29;;;;;;;;;;;;;;;24.15;29.23;81956.78;2088478;28;1226;-65
2021/06/29 01:08:30;;;;;;;;;;;;;;;24.15;29.28;81968.78;2080144;28;763;-67
2021/06/29 01:09:30;;;;;;;;;;;;;;;24.15;29.25;81944.78;2089003;28;1003;-66
2021/06/29 01:10:31;;;;;;;;;;;;;;;24.15;29.40;81954.78;2088580;28;810;-68
2021/06/29 01:11:31;;;;;;;;;;;;;;;24.15;29.43;81940.78;2089063;28;867;-68
2021/06/29 01:12:31;;;;;;;;;;;;;;;24.15;29.04;81928.78;2089447;28;738;-65
2021/06/29 01:13:32;;;;;;;;;;;;;;;24.15;29.01;81882.78;2089207;28;1428;-67
2021/06/29 01:14:32;;;;;;;;;;;;;;;24.15;29.10;81932.78;2089226;28;918;-67
2021/06/29 01:15:32;;;;;;;;;;;;;;;24.15;29.04;81920.78;2088549;28;1239;-68
2021/06/29 01:16:32;;;;;;;;;;;;;;;24.15;29.35;81930.78;2088366;28;954;-65
2021/06/29 01:17:32;;;;;;;;;;;;;;;24.15;29.15;81900.78;2088267;28;813;-66
2021/06/29 01:18:33;;;;;;;;;;;;;;;24.15;29.49;81984.78;2087929;28;691;-68
2021/06/29 01:19:47;;;;;;;;;;;;;;;24.15;29.02;81910.78;2086870;28;1380;-65
2021/06/29 01:20:47;;;;;;;;;;;;;;;24.15;29.18;81940.78;2087889;28;1010;-67
2021/06/29 01:21:50;;;;;;;;;;;;;;;24.15;29.04;81948.78;2088396;28;880;-64
2021/06/29 01:22:53;;;;;;;;;;;;;;;24.15;29.07;81918.78;2088614;28;876;-68
2021/06/29 01:23:56;;;;;;;;;;;;;;;24.15;29.05;81958.78;2080492;28;1228;-67
2021/06/29 01:24:58;;;;;;;;;;;;;;;24.15;29.41;81916.78;2080347;28;853;-68
2021/06/29 01:26:06;;;;;;;;;;;;;;;24.15;29.16;81964.78;2080312;28;1261;-65
2021/06/29 01:28:17;;;;;;;;;;;;;;;24.15;29.15;81968.78;2088071;28;1216;-65
2021/06/29 01:29:19;;;;;;;;;;;;;;;24.15;29.38;81956.78;2088241;28;909;-65
2021/06/29 01:31:20;;;;;;;;;;;;;;;24.15;29.21;81970.78;2088346;28;1000;-67
2021/06/29 01:32:20;;;;;;;;;;;;;;;24.15;29.46;81968.78;2088263;28;1352;-67
2021/06/29 01:33:20;;;;;;;;;;;;;;;24.15;29.19;81964.78;2080227;28;1006;-67
2021/06/29 01:34:20;;;;;;;;;;;;;;;24.15;29.16;81988.78;2088484;28;752;-68
2021/06/29 01:35:21;;;;;;;;;;;;;;;24.15;29.25;81954.78;2088215;28;1199;-65
2021/06/29 01:36:21;;;;;;;;;;;;;;;24.15;29.23;81974.78;2088330;28;967;-66
2021/06/29 01:37:23;;;;;;;;;;;;;;;24.15;29.43;81960.78;2080116;28;1276;-68
2021/06/29 01:38:23;;;;;;;;;;;;;;;24.15;29.40;81958.78;2079653;28;885;-66
2021/06/29 01:39:23;;;;;;;;;;;;;;;24.15;29.35;81946.78;2088472;28;880;-66
2021/06/29 01:40:27;;;;;;;;;;;;;;;24.15;29.40;81968.78;2079966;28;1898;-67
2021/06/29 01:41:28;;;;;;;;;;;;;;;24.15;29.58;81982.78;2072124;28;1332;-65
2021/06/29 01:42:28;;;;;;;;;;;;;;;24.15;29.25;82038.78;2072085;28;857;-68
2021/06/29 01:43:32;;;;;;;;;;;;;;;24.15;29.47;81976.78;2088453;28;1043;-68
2021/06/29 01:44:34;;;;;;;;;;;;;;;24.15;29.59;82010.78;2088946;28;833;-67
2021/06/29 01:45:34;;;;;;;;;;;;;;;24.15;29.37;81988.78;2089017;28;1359;-65
2021/06/29 01:46:38;;;;;;;;;;;;;;;24.15;29.29;82024.78;2079722;28;1260;-68
2021/06/29 01:48:02;;;;;;;;;;;;;;;24.15;29.57;81998.78;2072513;28;821;-66
2021/06/29 01:48:59;;;;;;;;;;;;;;;24.15;29.49;82006.78;2082550;28;1030;-64
2021/06/29 01:50:06;;;;;;;;;;;;;;;24.15;29.76;82026.78;2082818;28;818;-67
2021/06/29 01:51:07;;;;;;;;;;;;;;;24.15;29.40;82042.78;2080930;28;1035;-65
2021/06/29 01:52:07;;;;;;;;;;;;;;;24.15;29.37;82014.78;2080032;28;1231;-66
2021/06/29 01:53:07;;;;;;;;;;;;;;;24.15;29.43;82058.78;2063358;28;957;-67
2021/06/29 01:54:08;;;;;;;;;;;;;;;24.15;29.52;82114.78;2079923;28;936;-68
2021/06/29 01:55:08;;;;;;;;;;;;;;;24.15;29.84;82108.78;2087958;28;1126;-68
2021/06/29 01:56:14;;;;;;;;;;;;;;;24.15;29.84;82074.78;2071794;28;1307;-67
2021/06/29 01:57:15;;;;;;;;;;;;;;;24.15;29.79;82060.78;2073056;28;853;-67
2021/06/29 01:58:22;;;;;;;;;;;;;;;24.15;29.96;82034.78;2080030;28;833;-67
2021/06/29 01:59:23;;;;;;;;;;;;;;;24.15;29.95;82080.78;2088353;28;916;-67
2021/06/29 02:00:23;;;;;;;;;;;;;;;24.15;29.54;82098.78;2087849;28;1961;-66
2021/06/29 02:01:23;;;;;;;;;;;;;;;24.15;29.98;82044.78;2087903;28;847;-67
2021/06/29 02:02:24;;;;;;;;;;;;;;;24.15;29.58;82102.78;2088182;28;892;-66
2021/06/29 02:03:25;;;;;;;;;;;;;;;24.15;29.98;82108.78;2087955;28;888;-65
2021/06/29 02:04:25;;;;;;;;;;;;;;;24.15;29.59;82100.78;2088352;28;883;-67
2021/06/29 02:05:26;;;;;;;;;;;;;;;24.15;29.87;82064.78;2088156;28;1234;-66
2021/06/29 02:06:26;;;;;;;;;;;;;;;24.15;29.61;82114.78;2088242;28;1445;-66
2021/06/29 02:07:26;;;;;;;;;;;;;;;24.15;29.96;82110.78;2079840;28;937;-65
2021/06/29 02:08:26;;;;;;;;;;;;;;;24.15;29.66;82094.78;2071954;28;774;-68
2021/06/29 02:09:26;;;;;;;;;;;;;;;24.15;29.86;82064.78;2082930;28;2072;-68
2021/06/29 02:10:27;;;;;;;;;;;;;;;24.15;29.81;82072.78;2079854;28;1213;-68
2021/06/29 02:11:27;;;;;;;;;;;;;;;24.15;29.70;82108.78;2079578;28;1467;-68
2021/06/29 02:12:27;;;;;;;;;;;;;;;24.15;30.01;82108.78;2079886;28;1349;-66
2021/06/29 02:13:27;;;;;;;;;;;;;;;24.15;30.12;82118.78;2071597;28;813;-67
2021/06/29 02:14:27;;;;;;;;;;;;;;;24.15;29.67;82100.78;2079869;28;1022;-66
2021/06/29 02:15:28;;;;;;;;;;;;;;;24.15;30.10;82112.78;2080189;28;1177;-67
2021/06/29 02:16:28;;;;;;;;;;;;;;;24.15;29.73;82122.78;2080796;28;679;-68
2021/06/29 02:17:28;;;;;;;;;;;;;;;24.15;29.84;82126.78;2079692;28;1243;-67
2021/06/29 02:18:28;;;;;;;;;;;;;;;24.15;30.00;82130.78;2079606;28;750;-65
2021/06/29 02:19:28;;;;;;;;;;;;;;;24.15;29.79;82116.78;2080502;28;813;-66
2021/06/29 02:20:29;;;;;;;;;;;;;;;24.15;29.69;82114.78;2079631;28;1963;-67
2021/06/29 02:21:29;;;;;;;;;;;;;;;24.15;30.02;82116.78;2063424;28;1213;-66
2021/06/29 02:22:29;;;;;;;;;;;;;;;24.15;30.05;82136.78;2071778;28;829;-65
2021/06/29 02:23:29;;;;;;;;;;;;;;;24.15;30.02;82126.78;2079683;28;1024;-66
2021/06/29 02:24:29;;;;;;;;;;;;;;;24.15;29.93;82122.78;2080544;28;932;-67
2021/06/29 02:25:29;;;;;;;;;;;;;;;24.15;30.08;82110.78;2079402;28;1362;-67
2021/06/29 02:26:30;;;;;;;;;;;;;;;24.15;29.75;82138.78;2079517;28;1335;-67
2021/06/29 02:27:30;;;;;;;;;;;;;;;24.15;30.07;82126.78;2071560;28;951;-65
2021/06/29 02:28:30;;;;;;;;;;;;;;;24.15;30.00;82172.78;2079149;28;889;-66
2021/06/29 02:29:30;;;;;;;;;;;;;;;24.15;30.32;82188.78;2071701;28;960;-67
2021/06/29 02:30:30;;;;;;;;;;;;;;;24.15;30.44;82218.78;2071382;28;722;-65
2021/06/29 02:31:31;;;;;;;;;;;;;;;24.15;30.45;82232.78;2079637;28;1003;-66
2021/06/29 02:32:31;;;;;;;;;;;;;;;24.15;30.63;82236.78;2080273;28;1482;-65
2021/06/29 02:33:31;;;;;;;;;;;;;;;24.15;30.30;82192.78;2080509;28;881;-65
2021/06/29 02:34:31;;;;;;;;;;;;;;;24.15;30.40;82216.78;2079727;28;1031;-65
2021/06/29 02:35:32;;;;;;;;;;;;;;;24.15;30.29;82220.78;2079761;28;1215;-66
2021/06/29 02:36:32;;;;;;;;;;;;;;;24.15;30.42;82186.78;2080236;28;856;-68
2021/06/29 02:37:32;;;;;;;;;;;;;;;24.15;30.38;82170.78;2080189;28;983;-67
2021/06/29 02:38:32;;;;;;;;;;;;;;;24.15;30.44;82234.78;2079862;28;939;-68
2021/06/29 02:39:32;;;;;;;;;;;;;;;24.15;30.54;82244.78;2080424;28;880;-68
2021/06/29 02:40:32;;;;;;;;;;;;;;;24.15;30.75;82210.78;2080276;28;1905;-67
2021/06/29 02:41:33;;;;;;;;;;;;;;;24.15;30.60;82244.78;2079857;28;909;-67
2021/06/29 02:42:33;;;;;;;;;;;;;;;24.15;30.70;82216.78;2071253;28;790;-68
2021/06/29 02:43:36;;;;;;;;;;;;;;;24.15;30.59;82212.78;2079683;28;820;-65
2021/06/29 02:44:36;;;;;;;;;;;;;;;24.15;30.48;82236.78;2079627;28;817;-67
2021/06/29 02:45:37;;;;;;;;;;;;;;;24.15;30.39;82232.78;2079789;28;1219;-68
2021/06/29 02:46:37;;;;;;;;;;;;;;;24.15;30.32;82224.78;2079614;28;732;-66
2021/06/29 02:47:37;;;;;;;;;;;;;;;24.15;30.54;82240.78;2080249;28;817;-65
2021/06/29 02:48:38;;;;;;;;;;;;;;;24.15;30.47;82238.78;2078828;28;1055;-67
2021/06/29 02:49:38;;;;;;;;;;;;;;;24.15;30.50;82228.78;2071408;28;798;-65
2021/06/29 02:50:38;;;;;;;;;;;;;;;24.15;30.51;82220.78;2079458;28;992;-65
2021/06/29 02:51:38;;;;;;;;;;;;;;;24.15;30.51;82240.78;2079595;28;927;-66
2021/06/29 02:52:39;;;;;;;;;;;;;;;24.15;30.41;82240.78;2079345;28;853;-66
2021/06/29 02:53:39;;;;;;;;;;;;;;;24.15;30.36;82246.78;2078926;28;823;-67
2021/06/29 02:54:39;;;;;;;;;;;;;;;24.15;30.21;82242.78;2079657;28;780;-66
2021/06/29 02:55:39;;;;;;;;;;;;;;;24.15;30.38;82238.78;2079668;28;1205;-65
2021/06/29 02:56:40;;;;;;;;;;;;;;;24.15;30.28;82232.78;2079714;28;809;-65
2021/06/29 02:57:40;;;;;;;;;;;;;;;24.15;30.38;82228.78;2079497;28;794;-67
2021/06/29 02:58:40;;;;;;;;;;;;;;;24.15;30.57;82212.78;2078766;28;866;-68
2021/06/29 02:59:40;;;;;;;;;;;;;;;24.15;30.30;82226.78;2078631;28;897;-67
2021/06/29 03:00:41;;;;;;;;;;;;;;;24.15;30.61;82282.78;2080341;28;1973;-66
2021/06/29 03:01:41;;;;;;;;;;;;;;;24.15;30.75;82250.78;2087728;28;781;-66
2021/06/29 03:02:41;;;;;;;;;;;;;;;24.15;30.35;82256.78;2087328;28;939;-67
2021/06/29 03:03:42;;;;;;;;;;;;;;;24.15;30.60;82242.78;2086948;28;1358;-66
2021/06/29 03:04:42;;;;;;;;;;;;;;;24.15;30.35;82226.78;2087189;28;673;-65
2021/06/29 03:05:42;;;;;;;;;;;;;;;24.15;30.59;82244.78;2087090;28;1187;-65
2021/06/29 03:06:42;;;;;;;;;;;;;;;24.15;30.40;82284.78;2087253;28;987;-64
2021/06/29 03:07:42;;;;;;;;;;;;;;;24.15;30.43;82234.78;2086972;28;904;-66
2021/06/29 03:08:43;;;;;;;;;;;;;;;24.15;30.76;82278.78;2086890;28;1019;-67
2021/06/29 03:09:43;;;;;;;;;;;;;;;24.15;30.62;82248.78;2087077;28;809;-67
2021/06/29 03:10:43;;;;;;;;;;;;;;;24.15;30.77;82262.78;2087235;28;864;-66
2021/06/29 03:11:43;;;;;;;;;;;;;;;24.15;30.76;82298.78;2087681;28;766;-65
2021/06/29 03:12:43;;;;;;;;;;;;;;;24.15;30.72;82286.78;2087236;28;988;-67
2021/06/29 03:13:43;;;;;;;;;;;;;;;24.15;30.88;82272.78;2078743;28;889;-66
2021/06/29 03:14:44;;;;;;;;;;;;;;;24.15;30.78;82298.78;2086995;28;958;-67
2021/06/29 03:15:44;;;;;;;;;;;;;;;24.15;30.78;82258.78;2087611;28;1169;-67
2021/06/29 03:16:44;;;;;;;;;;;;;;;24.15;30.78;82266.78;2087793;28;915;-66
2021/06/29 03:17:44;;;;;;;;;;;;;;;24.15;30.71;82252.78;2078682;28;1435;-65
2021/06/29 03:18:45;;;;;;;;;;;;;;;24.15;30.57;82244.78;2070204;28;873;-67
2021/06/29 03:19:45;;;;;;;;;;;;;;;24.15;30.54;82300.78;2078554;28;1894;-67
2021/06/29 03:20:45;;;;;;;;;;;;;;;24.15;30.79;82256.78;2079053;28;888;-64
2021/06/29 03:21:45;;;;;;;;;;;;;;;24.15;30.68;82310.78;2086786;28;785;-65
2021/06/29 03:22:46;;;;;;;;;;;;;;;24.15;30.58;82274.78;2087136;28;1229;-67
2021/06/29 03:23:46;;;;;;;;;;;;;;;24.15;30.92;82324.81;2087253;28;1019;-67
2021/06/29 03:24:46;;;;;;;;;;;;;;;24.15;30.79;82306.78;2087928;28;885;-65
2021/06/29 03:25:46;;;;;;;;;;;;;;;24.15;30.75;82292.78;2087475;28;1297;-65
2021/06/29 03:26:47;;;;;;;;;;;;;;;24.15;30.94;82260.78;2087026;28;765;-64
2021/06/29 03:27:47;;;;;;;;;;;;;;;24.15;30.85;82306.78;2086598;28;1346;-67
2021/06/29 03:28:47;;;;;;;;;;;;;;;24.15;31.05;82310.78;2087915;28;1000;-66
2021/06/29 03:29:47;;;;;;;;;;;;;;;24.15;30.92;82316.81;2088797;28;1063;-66
2021/06/29 03:30:47;;;;;;;;;;;;;;;24.15;31.22;82350.81;2087434;28;888;-67
2021/06/29 03:31:48;;;;;;;;;;;;;;;24.15;31.05;82324.81;2087365;28;857;-67
2021/06/29 03:32:48;;;;;;;;;;;;;;;24.15;30.93;82322.81;2087143;28;732;-67
2021/06/29 03:33:48;;;;;;;;;;;;;;;24.15;31.08;82330.81;2087094;28;904;-67
2021/06/29 03:34:48;;;;;;;;;;;;;;;24.15;31.25;82346.81;2087091;28;848;-66
2021/06/29 03:35:48;;;;;;;;;;;;;;;24.15;31.28;82350.81;2087743;28;1292;-67
2021/06/29 03:36:49;;;;;;;;;;;;;;;24.15;31.35;82360.81;2087073;28;799;-67
2021/06/29 03:37:49;;;;;;;;;;;;;;;24.15;31.49;82354.81;2078902;28;1195;-65
2021/06/29 03:38:49;;;;;;;;;;;;;;;24.15;31.10;82336.81;2086187;28;1036;-65
2021/06/29 03:39:49;;;;;;;;;;;;;;;24.15;31.17;82358.81;2086756;28;1969;-67
2021/06/29 03:40:49;;;;;;;;;;;;;;;24.15;31.50;82392.81;2087141;28;813;-67
2021/06/29 03:41:50;;;;;;;;;;;;;;;24.15;31.33;82360.81;2087145;28;678;-67
2021/06/29 03:42:50;;;;;;;;;;;;;;;24.15;31.31;82358.81;2086935;28;892;-67
2021/06/29 03:43:50;;;;;;;;;;;;;;;24.15;31.48;82358.81;2078772;28;869;-67
2021/06/29 03:44:50;;;;;;;;;;;;;;;24.15;31.38;82364.81;2070558;28;776;-66
2021/06/29 03:45:50;;;;;;;;;;;;;;;24.15;31.33;82364.81;2087018;28;1247;-66
2021/06/29 03:46:51;;;;;;;;;;;;;;;24.15;31.35;82346.81;2086845;28;1310;-66
2021/06/29 03:47:51;;;;;;;;;;;;;;;24.15;31.40;82356.81;2070565;28;1019;-66
2021/06/29 03:48:51;;;;;;;;;;;;;;;24.15;31.38;82364.81;2070029;28;830;-65
2021/06/29 03:49:51;;;;;;;;;;;;;;;24.15;31.24;82386.81;2078538;28;897;-65
2021/06/29 03:50:51;;;;;;;;;;;;;;;24.15;31.26;82362.81;2070457;28;1353;-65
2021/06/29 03:51:53;;;;;;;;;;;;;;;24.15;31.23;82348.81;2078672;28;802;-66
2021/06/29 03:52:53;;;;;;;;;;;;;;;24.15;31.02;82370.81;2087147;28;833;-66
2021/06/29 03:53:53;;;;;;;;;;;;;;;24.15;31.21;82326.81;2086753;28;900;-66
2021/06/29 03:54:53;;;;;;;;;;;;;;;24.15;31.36;82332.81;2086955;28;764;-66
2021/06/29 03:55:54;;;;;;;;;;;;;;;24.15;31.03;82366.81;2086456;28;1204;-66
2021/06/29 03:56:54;;;;;;;;;;;;;;;24.15;31.17;82358.81;2087052;28;805;-66
2021/06/29 03:57:54;;;;;;;;;;;;;;;24.15;31.46;82386.81;2086789;28;768;-66
2021/06/29 03:59:15;;;;;;;;;;;;;;;24.15;31.32;82368.81;2087115;28;865;-66
2021/06/29 04:00:15;;;;;;;;;;;;;;;24.15;31.33;82384.81;2086038;28;1914;-66
2021/06/29 04:01:15;;;;;;;;;;;;;;;24.15;31.35;82360.81;2086766;28;809;-66
2021/06/29 04:02:15;;;;;;;;;;;;;;;24.15;31.25;82348.81;2087428;28;762;-66
2021/06/29 04:03:15;;;;;;;;;;;;;;;24.15;31.42;82368.81;2087606;28;922;-66
2021/06/29 04:04:16;;;;;;;;;;;;;;;24.15;31.19;82348.81;2086717;28;939;-66
2021/06/29 04:05:17;;;;;;;;;;;;;;;24.15;31.24;82380.81;2078617;28;1417;-66
2021/06/29 04:06:17;;;;;;;;;;;;;;;24.15;31.53;82364.81;2086706;28;833;-65
2021/06/29 04:07:17;;;;;;;;;;;;;;;24.15;31.40;82370.81;2087593;28;912;-66
2021/06/29 04:08:17;;;;;;;;;;;;;;;24.15;31.47;82348.81;2086813;28;738;-66
2021/06/29 04:09:18;;;;;;;;;;;;;;;24.15;31.39;82350.81;2086600;28;987;-66
2021/06/29 04:10:18;;;;;;;;;;;;;;;24.15;31.32;82332.81;2087010;28;892;-66
2021/06/29 04:11:18;;;;;;;;;;;;;;;24.15;31.25;82364.81;2087100;28;864;-65
2021/06/29 04:12:18;;;;;;;;;;;;;;;24.15;31.20;82346.81;2087044;28;892;-65
2021/06/29 04:13:18;;;;;;;;;;;;;;;24.15;31.34;82358.81;2087013;28;972;-66
2021/06/29 04:14:19;;;;;;;;;;;;;;;24.15;31.54;82358.81;2086716;28;939;-66
2021/06/29 04:15:19;;;;;;;;;;;;;;;24.15;31.35;82344.81;2087106;28;1199;-66
2021/06/29 04:16:19;;;;;;;;;;;;;;;24.15;31.51;82374.81;2086775;28;814;-65
2021/06/29 04:17:19;;;;;;;;;;;;;;;24.15;31.36;82356.81;2086721;28;818;-66
2021/06/29 04:18:20;;;;;;;;;;;;;;;24.15;31.40;82346.81;2086730;28;1034;-66
2021/06/29 04:19:20;;;;;;;;;;;;;;;24.15;31.72;82388.81;2087159;28;896;-66
2021/06/29 04:20:20;;;;;;;;;;;;;;;24.15;31.70;82366.81;2086798;28;1981;-66
2021/06/29 04:21:20;;;;;;;;;;;;;;;24.15;31.60;82374.81;2087021;28;843;-66
2021/06/29 04:22:21;;;;;;;;;;;;;;;24.15;31.57;82360.81;2087210;28;818;-65
2021/06/29 04:23:21;;;;;;;;;;;;;;;24.15;31.55;82388.81;2087428;28;880;-66
2021/06/29 04:24:21;;;;;;;;;;;;;;;24.15;31.72;82368.81;2086745;28;802;-66
2021/06/29 04:25:21;;;;;;;;;;;;;;;24.15;31.56;82372.81;2078643;28;1306;-66
2021/06/29 04:26:21;;;;;;;;;;;;;;;24.15;31.70;82350.81;2078511;28;1063;-65
2021/06/29 04:27:22;;;;;;;;;;;;;;;24.15;31.79;82388.81;2095056;28;758;-66
2021/06/29 04:28:22;;;;;;;;;;;;;;;24.15;31.64;82420.81;2087285;28;907;-66
2021/06/29 04:29:23;;;;;;;;;;;;;;;24.15;31.51;82380.81;2086256;28;876;-66
2021/06/29 04:30:23;;;;;;;;;;;;;;;24.15;31.72;82382.81;2086958;28;804;-66
2021/06/29 04:31:23;;;;;;;;;;;;;;;24.15;31.42;82368.81;2087061;28;877;-66
2021/06/29 04:32:23;;;;;;;;;;;;;;;24.15;31.44;82386.81;2087469;28;801;-66
2021/06/29 04:33:23;;;;;;;;;;;;;;;24.15;31.75;82364.81;2087229;28;860;-66
2021/06/29 04:34:24;;;;;;;;;;;;;;;24.15;31.61;82372.81;2086853;28;810;-66
2021/06/29 04:35:24;;;;;;;;;;;;;;;24.15;31.68;82360.81;2086717;28;1191;-66
2021/06/29 04:36:24;;;;;;;;;;;;;;;24.15;31.55;82370.81;2087603;28;885;-66
2021/06/29 04:37:24;;;;;;;;;;;;;;;24.15;31.62;82396.81;2087185;28;824;-66
2021/06/29 04:38:24;;;;;;;;;;;;;;;24.15;31.54;82380.81;2087510;28;749;-66
2021/06/29 04:39:24;;;;;;;;;;;;;;;24.15;31.82;82394.81;2085955;28;908;-66
2021/06/29 04:40:25;;;;;;;;;;;;;;;24.15;31.86;82400.81;2087095;28;1906;-66
2021/06/29 04:41:25;;;;;;;;;;;;;;;24.15;32.01;82410.81;2086900;28;805;-66
2021/06/29 04:42:25;;;;;;;;;;;;;;;24.15;31.88;82442.81;2087563;28;1118;-65
2021/06/29 04:43:25;;;;;;;;;;;;;;;24.15;31.93;82426.81;2078422;28;846;-66
2021/06/29 04:44:26;;;;;;;;;;;;;;;24.15;32.17;82438.81;2070778;28;1145;-65
2021/06/29 04:45:27;;;;;;;;;;;;;;;24.15;32.07;82428.81;2086704;28;1214;-67
2021/06/29 04:46:27;;;;;;;;;;;;;;;24.15;32.32;82424.81;2086915;28;932;-66
2021/06/29 04:47:27;;;;;;;;;;;;;;;24.15;32.26;82452.81;2086606;28;920;-65
2021/06/29 04:48:27;;;;;;;;;;;;;;;24.15;32.49;82428.81;2087516;28;825;-65
2021/06/29 04:49:29;;;;;;;;;;;;;;;24.15;32.38;82454.81;2087055;28;903;-66
2021/06/29 04:50:29;;;;;;;;;;;;;;;24.15;32.24;82434.81;2086550;28;988;-65
2021/06/29 04:51:29;;;;;;;;;;;;;;;24.15;32.21;82432.81;2086848;28;823;-66
2021/06/29 04:52:29;;;;;;;;;;;;;;;24.15;31.87;82442.81;2087473;28;825;-66
2021/06/29 04:53:29;;;;;;;;;;;;;;;24.15;32.08;82424.81;2087266;28;739;-65
2021/06/29 04:54:30;;;;;;;;;;;;;;;24.15;32.05;82410.81;2087526;28;833;-66
2021/06/29 04:55:33;;;;;;;;;;;;;;;24.15;32.30;82416.81;2087285;28;1239;-65
2021/06/29 04:56:33;;;;;;;;;;;;;;;24.15;32.41;82442.81;2086640;28;884;-66
2021/06/29 04:57:34;;;;;;;;;;;;;;;24.15;32.30;82448.81;2086700;28;739;-65
2021/06/29 04:58:34;;;;;;;;;;;;;;;24.15;32.45;82432.81;2086420;28;824;-65
2021/06/29 04:59:34;;;;;;;;;;;;;;;24.15;32.70;82488.81;2086715;28;979;-66
2021/06/29 05:00:35;;;;;;;;;;;;;;;24.15;32.79;82444.81;2086427;28;1898;-66
2021/06/29 05:01:35;;;;;;;;;;;;;;;24.15;32.68;82452.81;2084984;28;1225;-65
2021/06/29 05:02:35;;;;;;;;;;;;;;;24.15;32.54;82430.81;2078144;28;1470;-65
2021/06/29 05:03:35;;;;;;;;;;;;;;;24.15;32.83;82444.81;2078607;28;886;-65
2021/06/29 05:04:35;;;;;;;;;;;;;;;24.15;32.75;82426.81;2078381;28;913;-65
2021/06/29 05:05:36;;;;;;;;;;;;;;;24.15;32.79;82410.81;2079252;28;1298;-66
2021/06/29 05:06:36;;;;;;;;;;;;;;;24.15;32.59;82438.81;2078649;28;857;-65
2021/06/29 05:07:36;;;;;;;;;;;;;;;24.15;32.56;82440.81;2078636;28;676;-66
2021/06/29 05:08:36;;;;;;;;;;;;;;;24.15;32.47;82424.81;2077861;28;1180;-66
2021/06/29 05:09:37;;;;;;;;;;;;;;;24.15;32.62;82444.81;2078809;28;840;-66
2021/06/29 05:10:37;;;;;;;;;;;;;;;24.15;32.70;82406.81;2078499;28;909;-66
2021/06/29 05:11:37;;;;;;;;;;;;;;;24.15;32.65;82454.81;2070410;28;1007;-66
2021/06/29 05:12:37;;;;;;;;;;;;;;;24.15;32.98;82466.81;2078202;28;829;-66
2021/06/29 05:13:37;;;;;;;;;;;;;;;24.15;33.05;82466.81;2079246;28;777;-66
2021/06/29 05:14:38;;;;;;;;;;;;;;;24.15;32.94;82434.81;2078900;28;904;-66
2021/06/29 05:15:38;;;;;;;;;;;;;;;24.15;32.90;82434.81;2078754;28;1256;-66
2021/06/29 05:16:38;;;;;;;;;;;;;;;24.15;32.75;82448.81;2070025;28;1040;-65
2021/06/29 05:17:39;;;;;;;;;;;;;;;24.15;32.68;82436.81;2079994;28;853;-66
2021/06/29 05:18:39;;;;;;;;;;;;;;;24.15;32.65;82412.81;2095502;28;972;-66
2021/06/29 05:19:39;;;;;;;;;;;;;;;24.15;32.92;82422.81;2079960;28;960;-66
2021/06/29 05:20:39;;;;;;;;;;;;;;;24.15;32.76;82444.81;2079863;28;1918;-66
2021/06/29 05:21:40;;;;;;;;;;;;;;;24.15;33.03;82452.81;2080059;28;837;-66
2021/06/29 05:22:40;;;;;;;;;;;;;;;24.15;32.90;82440.81;2071174;28;825;-66
2021/06/29 05:23:40;;;;;;;;;;;;;;;24.15;32.78;82428.81;2079989;28;806;-65